Lueders, Texas
Current Conditions -  °F | °C
As of 6:52 PM on Sunday 23 Nov 2014 (Local Time) from KABI Reporting Station
Clear Clear  
Wind Chill: 55°   Ceiling: Unl
Heat Index: 55°   Visibility: 10mi
Dew Point: 35°   Wind: 29mph
Humidity: 47%   Direction: 340°NNW
Pressure: 29.76"   Gusts: 36mph
Location:  32.8°N, 99.62°W
Report Text: KABI 240052Z 34025G31KT 10SM CLR 13/02 A2976 RMK AO2 PK WND 35032/0029 PRESRR SLP067 T01280017
Loading
Personal Weather Stations






























Interactive Weather Map New forecast layout! Learn more

10-Day Weather Forecast

Advertisements
Track Severe Weather on mobile